createdAt,value
2022-09-27T00:01:31.125Z,10.13
2022-09-27T00:04:02.592Z,7.22
2022-09-27T00:06:32.789Z,7.80
2022-09-27T00:09:03.606Z,6.33
2022-09-27T00:11:39.227Z,6.90
2022-09-27T00:14:09.098Z,10.03
2022-09-27T00:16:39.469Z,5.95
2022-09-27T00:19:18.773Z,7.45
2022-09-27T00:21:48.132Z,6.92
2022-09-27T00:24:21.433Z,6.40
2022-09-27T00:26:50.619Z,7.33
2022-09-27T00:29:20.597Z,8.05
2022-09-27T00:31:50.378Z,9.05
2022-09-27T00:34:23.019Z,7.50
2022-09-27T00:36:53.235Z,7.37
2022-09-27T00:39:23.159Z,7.75
2022-09-27T00:41:52.252Z,11.60
2022-09-27T00:44:33.638Z,8.38
2022-09-27T00:47:08.700Z,11.28
2022-09-27T00:49:46.781Z,10.38
2022-09-27T00:52:28.979Z,7.80
2022-09-27T00:55:03.749Z,9.48
2022-09-27T00:57:33.065Z,8.68
2022-09-27T01:00:09.828Z,8.23
2022-09-27T01:02:42.800Z,8.50
2022-09-27T01:05:13.652Z,9.35
2022-09-27T01:07:44.057Z,9.80
2022-09-27T01:10:14.091Z,9.40
2022-09-27T01:12:49.381Z,7.45
2022-09-27T01:15:50.113Z,10.48
2022-09-27T01:18:35.957Z,9.30
2022-09-27T01:21:34.013Z,8.70
2022-09-27T01:27:14.761Z,8.05
2022-09-27T01:30:21.419Z,9.10
2022-09-27T01:33:06.885Z,8.28
2022-09-27T01:36:07.801Z,9.80
2022-09-27T01:39:05.037Z,10.23
2022-09-27T01:41:54.237Z,12.45
2022-09-27T01:44:51.279Z,11.18
2022-09-27T01:47:26.314Z,11.05
2022-09-27T01:50:26.707Z,13.30
2022-09-27T01:53:25.528Z,14.05
2022-09-27T01:56:00.390Z,12.05
2022-09-27T01:58:57.847Z,15.70
2022-09-27T02:01:29.570Z,12.95
2022-09-27T02:04:00.424Z,13.03
2022-09-27T02:06:45.520Z,12.47
2022-09-27T02:09:33.941Z,11.80
2022-09-27T02:12:11.435Z,13.40
2022-09-27T02:15:05.329Z,14.25
2022-09-27T02:18:02.879Z,15.83
2022-09-27T02:20:42.858Z,14.00
2022-09-27T02:23:27.821Z,17.10
2022-09-27T02:26:25.063Z,15.63
2022-09-27T02:29:18.441Z,14.23
2022-09-27T02:31:50.266Z,17.73
2022-09-27T02:34:25.177Z,13.88
2022-09-27T02:36:54.864Z,14.13
2022-09-27T02:39:24.258Z,13.03
2022-09-27T02:41:58.073Z,13.53
2022-09-27T02:44:28.714Z,12.82
2022-09-27T02:47:21.838Z,13.32
2022-09-27T02:50:27.879Z,13.08
2022-09-27T02:53:22.696Z,14.70
2022-09-27T02:56:41.089Z,17.50
2022-09-27T02:59:45.881Z,17.90
2022-09-27T03:02:53.212Z,17.05
2022-09-27T03:05:46.633Z,16.17
2022-09-27T03:08:16.476Z,16.65
2022-09-27T03:10:45.808Z,21.90
2022-09-27T03:13:16.035Z,18.52
2022-09-27T03:15:46.925Z,24.10
2022-09-27T03:18:35.802Z,21.30
2022-09-27T03:21:12.911Z,25.30
2022-09-27T03:23:43.016Z,27.10
2022-09-27T03:26:13.268Z,26.40
2022-09-27T03:28:43.428Z,21.65
2022-09-27T03:31:12.824Z,24.35
2022-09-27T03:33:52.961Z,29.50
2022-09-27T03:36:22.324Z,25.85
2022-09-27T03:38:52.528Z,25.57
2022-09-27T03:41:22.775Z,26.12
2022-09-27T03:43:52.121Z,27.40
2022-09-27T03:46:22.047Z,29.27
2022-09-27T03:48:52.129Z,31.30
2022-09-27T03:51:21.735Z,32.78
2022-09-27T03:53:52.481Z,32.23
2022-09-27T03:56:22.241Z,30.40
2022-09-27T03:58:51.988Z,28.30
2022-09-27T04:01:23.537Z,33.18
2022-09-27T04:03:53.676Z,28.40
2022-09-27T04:06:27.994Z,32.67
2022-09-27T04:08:58.144Z,29.27
2022-09-27T04:11:30.469Z,27.77
2022-09-27T04:14:00.654Z,30.88
2022-09-27T04:16:32.315Z,28.98
2022-09-27T04:19:16.357Z,30.55
2022-09-27T04:21:52.117Z,32.88
2022-09-27T04:24:21.818Z,33.58
2022-09-27T04:26:54.446Z,34.45
2022-09-27T04:29:26.702Z,34.85
2022-09-27T04:31:56.886Z,35.50
2022-09-27T04:34:56.397Z,30.45
2022-09-27T04:37:27.066Z,32.50
2022-09-27T04:39:58.235Z,33.02
2022-09-27T04:42:28.885Z,37.67
2022-09-27T04:44:59.245Z,32.98
2022-09-27T04:47:28.760Z,33.85
2022-09-27T04:49:58.653Z,35.73
2022-09-27T04:52:27.666Z,32.75
2022-09-27T04:54:58.830Z,35.50
2022-09-27T04:57:29.587Z,37.85
2022-09-27T05:00:00.437Z,39.33
2022-09-27T05:02:31.606Z,38.08
2022-09-27T05:05:04.212Z,36.23
2022-09-27T05:07:38.159Z,37.10
2022-09-27T05:10:10.812Z,35.13
2022-09-27T05:12:40.036Z,35.52
2022-09-27T05:15:10.949Z,35.45
2022-09-27T05:17:59.389Z,38.10
2022-09-27T05:20:37.511Z,38.48
2022-09-27T05:23:15.192Z,37.10
2022-09-27T05:25:45.130Z,37.03
2022-09-27T05:28:14.938Z,37.85
2022-09-27T05:30:45.660Z,37.90
2022-09-27T05:33:18.294Z,36.98
2022-09-27T05:35:55.287Z,37.28
2022-09-27T05:38:27.198Z,38.33
2022-09-27T05:40:59.722Z,37.30
2022-09-27T05:43:29.332Z,32.90
2022-09-27T05:46:01.131Z,32.78
2022-09-27T05:48:32.114Z,34.25
2022-09-27T05:51:07.025Z,38.58
2022-09-27T05:53:38.689Z,35.63
2022-09-27T05:56:11.419Z,33.95
2022-09-27T05:59:00.302Z,34.80
2022-09-27T06:01:32.735Z,32.58
2022-09-27T06:04:16.187Z,40.90
2022-09-27T06:06:48.188Z,30.15
2022-09-27T06:09:19.302Z,33.42
2022-09-27T06:11:51.238Z,37.38
2022-09-27T06:14:22.191Z,37.90
2022-09-27T06:17:04.505Z,35.95
2022-09-27T06:19:36.477Z,39.38
2022-09-27T06:22:07.769Z,38.60
2022-09-27T06:24:43.846Z,35.98
2022-09-27T06:27:18.992Z,38.00
2022-09-27T06:30:01.257Z,30.40
2022-09-27T06:33:02.254Z,39.30
2022-09-27T06:35:46.790Z,35.58
2022-09-27T06:38:18.282Z,42.88
2022-09-27T06:40:50.655Z,43.92
2022-09-27T06:43:35.554Z,42.30
2022-09-27T06:46:19.547Z,35.58
2022-09-27T06:48:51.068Z,38.53
2022-09-27T06:51:22.872Z,57.13
2022-09-27T06:53:53.803Z,40.05
2022-09-27T06:56:23.786Z,42.38
2022-09-27T06:59:13.745Z,40.75
2022-09-27T07:01:46.174Z,48.38
2022-09-27T07:04:34.527Z,48.05
2022-09-27T07:07:10.498Z,41.08
2022-09-27T07:09:43.270Z,47.30
2022-09-27T07:12:14.594Z,44.35
2022-09-27T07:14:45.148Z,45.20
2022-09-27T07:17:16.774Z,44.75
2022-09-27T07:19:49.295Z,42.85
2022-09-27T07:22:19.860Z,44.03
2022-09-27T07:24:52.098Z,46.18
2022-09-27T07:27:25.267Z,45.78
2022-09-27T07:29:55.605Z,42.62
2022-09-27T07:32:27.245Z,50.92
2022-09-27T07:34:57.438Z,57.53
2022-09-27T07:37:27.304Z,47.00
2022-09-27T07:39:57.744Z,48.63
2022-09-27T07:42:28.773Z,44.40
2022-09-27T07:45:00.123Z,50.63
2022-09-27T07:47:48.708Z,37.78
2022-09-27T07:50:22.073Z,42.62
2022-09-27T07:52:56.871Z,42.38
2022-09-27T07:55:38.712Z,36.68
2022-09-27T07:58:13.484Z,34.08
2022-09-27T08:00:44.032Z,34.35
2022-09-27T08:03:15.817Z,30.88
2022-09-27T08:05:48.048Z,35.13
2022-09-27T08:08:20.374Z,34.48
2022-09-27T08:10:53.440Z,37.50
2022-09-27T08:13:24.447Z,42.38
2022-09-27T08:15:55.427Z,42.50
2022-09-27T08:18:26.248Z,40.70
2022-09-27T08:20:59.972Z,42.78
2022-09-27T08:23:35.201Z,41.50
2022-09-27T08:26:12.796Z,45.23
2022-09-27T08:28:53.511Z,38.75
2022-09-27T08:31:25.952Z,39.23
2022-09-27T08:33:58.264Z,38.33
2022-09-27T08:36:30.605Z,37.73
2022-09-27T08:39:00.537Z,43.20
2022-09-27T08:41:39.939Z,46.50
2022-09-27T08:44:20.791Z,41.92
2022-09-27T08:47:03.157Z,45.50
2022-09-27T08:50:00.990Z,44.50
2022-09-27T08:52:43.825Z,45.35
2022-09-27T08:55:54.646Z,45.65
2022-09-27T08:58:42.152Z,36.70
2022-09-27T09:01:16.154Z,33.73
2022-09-27T09:03:52.059Z,34.95
2022-09-27T09:06:25.870Z,40.63
2022-09-27T09:09:18.674Z,35.00
2022-09-27T09:12:46.791Z,36.63
2022-09-27T09:15:58.775Z,33.13
2022-09-27T09:19:04.251Z,33.73
2022-09-27T09:22:10.201Z,34.75
2022-09-27T09:25:02.338Z,31.93
2022-09-27T09:27:52.230Z,37.13
2022-09-27T09:30:24.758Z,32.40
2022-09-27T09:33:17.180Z,36.75
2022-09-27T09:36:03.948Z,27.75
2022-09-27T09:38:51.905Z,30.25
2022-09-27T09:41:31.156Z,31.85
2022-09-27T09:44:08.007Z,27.00
2022-09-27T09:46:45.760Z,33.42
2022-09-27T09:49:25.643Z,28.87
2022-09-27T09:52:08.736Z,29.18
2022-09-27T09:54:47.078Z,28.17
2022-09-27T09:57:28.357Z,30.20
2022-09-27T10:00:17.650Z,29.23
2022-09-27T10:02:48.096Z,29.67
2022-09-27T10:05:26.301Z,26.97
2022-09-27T10:07:59.802Z,31.75
2022-09-27T10:10:29.644Z,36.42
2022-09-27T10:13:21.439Z,28.15
2022-09-27T10:16:03.883Z,27.82
2022-09-27T10:18:33.789Z,29.82
2022-09-27T10:21:08.362Z,31.35
2022-09-27T10:23:38.082Z,24.92
2022-09-27T10:26:12.240Z,28.87
2022-09-27T10:28:51.622Z,25.48
2022-09-27T10:31:22.816Z,26.45
2022-09-27T10:34:06.058Z,26.68
2022-09-27T10:36:42.931Z,27.17
2022-09-27T10:39:22.745Z,28.75
2022-09-27T10:41:52.039Z,30.00
2022-09-27T10:44:32.577Z,31.37
2022-09-27T10:47:10.462Z,38.38
2022-09-27T10:49:44.615Z,34.75
2022-09-27T10:52:23.500Z,37.58
2022-09-27T10:55:04.057Z,37.58
2022-09-27T10:57:33.207Z,35.70
2022-09-27T11:00:32.690Z,44.18
2022-09-27T11:03:08.413Z,47.78
2022-09-27T11:05:39.355Z,50.07
2022-09-27T11:08:30.647Z,47.85
2022-09-27T11:11:19.686Z,51.80
2022-09-27T11:14:07.884Z,52.13
2022-09-27T11:17:03.472Z,44.45
2022-09-27T11:19:41.687Z,51.88
2022-09-27T11:22:41.587Z,48.02
2022-09-27T11:25:36.506Z,50.48
2022-09-27T11:28:36.556Z,54.38
2022-09-27T11:31:35.669Z,52.20
2022-09-27T11:34:12.304Z,52.95
2022-09-27T11:37:14.277Z,48.25
2022-09-27T11:40:10.721Z,50.70
2022-09-27T11:43:07.374Z,50.40
2022-09-27T11:46:16.714Z,54.05
2022-09-27T11:49:19.775Z,50.23
2022-09-27T11:52:36.477Z,47.23
2022-09-27T11:55:26.168Z,48.85
2022-09-27T11:58:27.629Z,49.35
2022-09-27T12:01:28.786Z,51.20
2022-09-27T12:04:29.153Z,47.93
2022-09-27T12:07:25.845Z,48.13
2022-09-27T12:09:59.518Z,51.85
2022-09-27T12:12:31.036Z,59.95
2022-09-27T12:15:06.935Z,51.55
2022-09-27T12:17:40.366Z,55.78
2022-09-27T12:20:28.595Z,54.58
2022-09-27T12:23:17.877Z,54.65
2022-09-27T12:25:52.617Z,57.88
2022-09-27T12:28:55.007Z,58.05
2022-09-27T12:31:46.492Z,55.95
2022-09-27T12:34:45.834Z,57.08
2022-09-27T12:37:38.553Z,52.50
2022-09-27T12:40:26.175Z,55.23
2022-09-27T12:43:11.903Z,56.53
2022-09-27T12:46:22.962Z,53.40
2022-09-27T12:49:00.446Z,53.85
2022-09-27T12:51:54.041Z,62.60
2022-09-27T12:54:56.135Z,52.48
2022-09-27T12:57:58.677Z,61.05
2022-09-27T13:00:32.328Z,57.50
2022-09-27T13:03:52.981Z,55.67
2022-09-27T13:06:39.483Z,56.00
2022-09-27T13:09:42.067Z,56.15
2022-09-27T13:12:18.978Z,52.83
2022-09-27T13:15:15.648Z,57.62
2022-09-27T13:17:53.360Z,59.98
2022-09-27T13:20:44.168Z,54.42
2022-09-27T13:23:29.731Z,53.28
2022-09-27T13:26:03.527Z,57.05
2022-09-27T13:28:56.715Z,55.20
2022-09-27T13:32:01.131Z,54.73
2022-09-27T13:34:57.325Z,49.75
2022-09-27T13:37:55.910Z,55.73
2022-09-27T13:40:32.682Z,52.45
2022-09-27T13:43:17.958Z,53.50
2022-09-27T13:46:01.718Z,47.48
2022-09-27T13:48:43.139Z,49.20
2022-09-27T13:51:33.638Z,46.77
2022-09-27T13:54:10.568Z,47.93
2022-09-27T13:56:46.408Z,48.40
2022-09-27T13:59:49.301Z,38.23
2022-09-27T14:02:29.451Z,47.58
2022-09-27T14:05:00.005Z,46.02
2022-09-27T14:07:40.568Z,43.98
2022-09-27T14:10:21.623Z,43.13
2022-09-27T14:12:53.391Z,38.98
2022-09-27T14:15:30.718Z,44.03
2022-09-27T14:20:42.088Z,49.88
2022-09-27T14:23:23.654Z,44.70
2022-09-27T14:25:54.942Z,42.05
2022-09-27T14:28:29.066Z,39.70
2022-09-27T14:31:18.444Z,41.40
2022-09-27T14:33:57.443Z,40.00
2022-09-27T14:36:52.953Z,42.45
2022-09-27T14:39:35.933Z,39.15
2022-09-27T14:42:21.968Z,79.65
2022-09-27T14:44:51.351Z,42.48
2022-09-27T14:47:26.526Z,45.38
2022-09-27T14:50:05.751Z,43.05
2022-09-27T14:52:35.274Z,36.58
2022-09-27T14:55:16.121Z,37.33
2022-09-27T14:57:59.080Z,37.83
2022-09-27T15:00:35.165Z,37.70
2022-09-27T15:03:06.413Z,42.97
2022-09-27T15:05:36.376Z,39.50
2022-09-27T15:08:06.636Z,43.05
2022-09-27T15:10:37.099Z,44.77
2022-09-27T15:13:09.773Z,40.58
2022-09-27T15:15:43.060Z,36.08
2022-09-27T15:18:41.241Z,41.88
2022-09-27T15:21:16.451Z,45.92
2022-09-27T15:23:46.066Z,41.75
2022-09-27T15:26:23.400Z,40.12
2022-09-27T15:31:35.310Z,41.23
2022-09-27T15:34:06.335Z,35.13
2022-09-27T15:36:54.881Z,40.50
2022-09-27T15:39:37.246Z,40.08
2022-09-27T15:42:17.509Z,40.92
2022-09-27T15:44:50.141Z,36.75
2022-09-27T15:47:39.861Z,32.83
2022-09-27T15:50:30.782Z,38.25
2022-09-27T15:53:02.790Z,30.62
2022-09-27T15:55:33.100Z,37.83
2022-09-27T15:58:21.010Z,39.35
2022-09-27T16:03:27.218Z,39.40
2022-09-27T16:05:58.076Z,39.50
2022-09-27T16:08:29.578Z,43.17
2022-09-27T16:10:59.626Z,42.23
2022-09-27T16:13:32.941Z,38.20
2022-09-27T16:16:02.888Z,52.85
2022-09-27T16:18:34.420Z,46.92
2022-09-27T16:21:04.695Z,41.42
2022-09-27T16:23:34.923Z,45.95
2022-09-27T16:26:05.109Z,46.75
2022-09-27T16:28:34.884Z,44.48
2022-09-27T16:31:07.826Z,44.53
2022-09-27T16:33:37.009Z,42.15
2022-09-27T16:36:09.782Z,46.65
2022-09-27T16:38:42.028Z,45.12
2022-09-27T16:41:11.774Z,51.73
2022-09-27T16:43:44.891Z,46.65
2022-09-27T16:46:16.099Z,43.60
2022-09-27T16:48:49.512Z,50.58
2022-09-27T16:51:39.979Z,46.08
2022-09-27T16:54:09.685Z,42.55
2022-09-27T16:56:40.028Z,46.05
2022-09-27T16:59:09.490Z,42.60
2022-09-27T17:01:40.128Z,44.10
2022-09-27T17:04:09.642Z,48.60
2022-09-27T17:06:38.892Z,50.00
2022-09-27T17:09:08.327Z,44.90
2022-09-27T17:11:37.191Z,47.25
2022-09-27T17:14:08.218Z,49.40
2022-09-27T17:16:38.016Z,45.58
2022-09-27T17:19:09.160Z,44.42
2022-09-27T17:21:38.382Z,45.55
2022-09-27T17:24:09.809Z,46.33
2022-09-27T17:26:40.224Z,47.10
2022-09-27T17:29:12.625Z,50.15
2022-09-27T17:31:42.625Z,47.05
2022-09-27T17:34:13.526Z,44.13
2022-09-27T17:36:44.022Z,47.23
2022-09-27T17:39:14.679Z,46.83
2022-09-27T17:41:46.346Z,46.08
2022-09-27T17:44:18.550Z,45.03
2022-09-27T17:46:50.689Z,43.90
2022-09-27T17:49:38.205Z,43.63
2022-09-27T17:52:08.780Z,41.20
2022-09-27T17:54:40.087Z,46.33
2022-09-27T17:57:10.551Z,41.50
2022-09-27T17:59:41.233Z,40.35
2022-09-27T18:02:10.326Z,43.20
2022-09-27T18:04:39.963Z,49.58
2022-09-27T18:07:11.212Z,42.00
2022-09-27T18:09:43.234Z,43.50
2022-09-27T18:12:13.467Z,44.50
2022-09-27T18:14:45.886Z,47.38
2022-09-27T18:17:16.913Z,48.17
2022-09-27T18:19:46.621Z,45.83
2022-09-27T18:22:16.456Z,41.77
2022-09-27T18:24:46.478Z,42.50
2022-09-27T18:27:17.826Z,41.35
2022-09-27T18:29:46.877Z,42.53
2022-09-27T18:32:16.913Z,48.80
2022-09-27T18:34:46.020Z,43.02
2022-09-27T18:37:15.403Z,43.25
2022-09-27T18:39:45.479Z,41.13
2022-09-27T18:42:14.380Z,44.05
2022-09-27T18:44:44.124Z,41.83
2022-09-27T18:47:15.155Z,44.42
2022-09-27T18:49:44.815Z,45.10
2022-09-27T18:52:13.711Z,44.83
2022-09-27T18:54:43.910Z,43.73
2022-09-27T18:57:12.988Z,47.73
2022-09-27T18:59:42.790Z,43.63
2022-09-27T19:02:13.076Z,43.02
2022-09-27T19:04:42.448Z,41.45
2022-09-27T19:07:11.745Z,37.73
2022-09-27T19:09:40.604Z,42.00
2022-09-27T19:12:10.309Z,39.60
2022-09-27T19:14:41.869Z,43.30
2022-09-27T19:17:11.888Z,41.73
2022-09-27T19:19:42.005Z,38.90
2022-09-27T19:22:11.273Z,40.12
2022-09-27T19:24:40.674Z,37.30
2022-09-27T19:27:11.099Z,34.35
2022-09-27T19:29:40.554Z,37.05
2022-09-27T19:32:10.386Z,34.98
2022-09-27T19:34:40.318Z,34.23
2022-09-27T19:37:11.252Z,36.23
2022-09-27T19:39:41.293Z,39.55
2022-09-27T19:42:11.011Z,35.68
2022-09-27T19:44:41.116Z,36.50
2022-09-27T19:47:10.817Z,37.15
2022-09-27T19:49:40.758Z,36.90
2022-09-27T19:52:10.434Z,35.08
2022-09-27T19:54:40.209Z,37.28
2022-09-27T19:57:10.249Z,33.13
2022-09-27T19:59:42.269Z,34.98
2022-09-27T20:02:12.205Z,31.27
2022-09-27T20:04:41.986Z,32.63
2022-09-27T20:07:11.128Z,32.88
2022-09-27T20:09:42.034Z,28.45
2022-09-27T20:12:11.561Z,27.35
2022-09-27T20:14:42.582Z,27.70
2022-09-27T20:17:12.154Z,26.30
2022-09-27T20:19:42.265Z,26.10
2022-09-27T20:22:12.096Z,30.23
2022-09-27T20:24:41.521Z,28.87
2022-09-27T20:27:11.389Z,29.27
2022-09-27T20:29:41.100Z,28.62
2022-09-27T20:32:26.756Z,30.12
2022-09-27T20:34:42.371Z,28.47
2022-09-27T20:37:11.925Z,26.00
2022-09-27T20:39:42.419Z,26.00
2022-09-27T20:42:13.215Z,30.15
2022-09-27T20:44:42.606Z,30.52
2022-09-27T20:47:12.507Z,27.30
2022-09-27T20:49:42.717Z,30.15
2022-09-27T20:52:12.124Z,25.90
2022-09-27T20:54:41.389Z,29.40
2022-09-27T20:57:12.872Z,28.27
2022-09-27T20:59:43.089Z,28.85
2022-09-27T21:02:12.024Z,28.02
2022-09-27T21:04:41.731Z,28.55
2022-09-27T21:07:11.799Z,30.05
2022-09-27T21:09:41.260Z,29.50
2022-09-27T21:12:11.546Z,32.40
2022-09-27T21:14:43.843Z,32.10
2022-09-27T21:17:13.541Z,31.57
2022-09-27T21:19:42.977Z,29.18
2022-09-27T21:22:12.857Z,28.77
2022-09-27T21:24:42.368Z,29.02
2022-09-27T21:27:12.194Z,29.67
2022-09-27T21:29:41.747Z,31.45
2022-09-27T21:32:11.396Z,31.10
2022-09-27T21:34:41.607Z,32.58
2022-09-27T21:37:11.134Z,28.77
2022-09-27T21:39:40.502Z,30.88
2022-09-27T21:42:11.010Z,33.80
2022-09-27T21:44:40.618Z,32.42
2022-09-27T21:47:10.877Z,29.48
2022-09-27T21:49:40.513Z,33.55
2022-09-27T21:52:09.578Z,30.62
2022-09-27T21:54:39.723Z,27.62
2022-09-27T21:57:09.244Z,30.72
2022-09-27T21:59:39.489Z,29.63
2022-09-27T22:02:09.497Z,27.55
2022-09-27T22:04:39.452Z,27.80
2022-09-27T22:07:09.378Z,26.60
2022-09-27T22:09:39.597Z,29.35
2022-09-27T22:12:09.619Z,31.40
2022-09-27T22:14:40.957Z,29.35
2022-09-27T22:17:09.848Z,25.97
2022-09-27T22:19:39.597Z,27.87
2022-09-27T22:22:08.887Z,28.65
2022-09-27T22:24:38.231Z,27.75
2022-09-27T22:27:08.748Z,31.75
2022-09-27T22:29:37.692Z,29.55
2022-09-27T22:32:08.541Z,29.50
2022-09-27T22:34:38.427Z,28.02
2022-09-27T22:37:08.099Z,30.75
2022-09-27T22:39:38.281Z,30.70
2022-09-27T22:42:08.985Z,30.62
2022-09-27T22:44:39.506Z,29.48
2022-09-27T22:47:09.201Z,32.42
2022-09-27T22:49:38.960Z,27.77
2022-09-27T22:52:08.038Z,30.12
2022-09-27T22:54:37.477Z,29.45
2022-09-27T22:57:07.701Z,26.85
2022-09-27T22:59:37.730Z,26.82
2022-09-27T23:02:07.840Z,28.32
2022-09-27T23:04:37.138Z,31.87
2022-09-27T23:07:07.585Z,27.73
2022-09-27T23:09:38.092Z,29.02
2022-09-27T23:12:09.029Z,28.38
2022-09-27T23:14:42.549Z,29.87
2022-09-27T23:17:11.324Z,28.52
2022-09-27T23:19:42.569Z,28.70
2022-09-27T23:22:13.844Z,26.73
2022-09-27T23:24:44.039Z,26.95
2022-09-27T23:27:32.367Z,28.20
2022-09-27T23:30:01.511Z,26.70
2022-09-27T23:32:32.071Z,29.55
2022-09-27T23:35:01.618Z,26.25
2022-09-27T23:37:31.472Z,25.02
2022-09-27T23:40:17.046Z,27.75
2022-09-27T23:42:48.105Z,29.10
2022-09-27T23:45:18.989Z,28.15
2022-09-27T23:47:48.700Z,30.10
2022-09-27T23:50:17.928Z,26.20
2022-09-27T23:52:47.640Z,27.45
2022-09-27T23:55:17.883Z,27.55
2022-09-27T23:57:47.738Z,28.62
